sensor_id;sensor_type;location;lat;lon;timestamp;P1;durP1;ratioP1;P2;durP2;ratioP2
7571;SDS011;3827;49.928;8.548;2023-10-13T00:01:44;8.20;;;6.22;;
7571;SDS011;3827;49.928;8.548;2023-10-13T00:04:12;10.90;;;6.03;;
7571;SDS011;3827;49.928;8.548;2023-10-13T00:06:39;9.13;;;6.15;;
7571;SDS011;3827;49.928;8.548;2023-10-13T00:09:07;8.95;;;6.50;;
7571;SDS011;3827;49.928;8.548;2023-10-13T00:11:40;9.70;;;6.18;;
7571;SDS011;3827;49.928;8.548;2023-10-13T00:14:11;9.02;;;6.20;;
7571;SDS011;3827;49.928;8.548;2023-10-13T00:16:40;9.57;;;6.53;;
7571;SDS011;3827;49.928;8.548;2023-10-13T00:19:25;9.50;;;6.00;;
7571;SDS011;3827;49.928;8.548;2023-10-13T00:21:53;8.50;;;6.28;;
7571;SDS011;3827;49.928;8.548;2023-10-13T00:24:21;7.60;;;6.00;;
7571;SDS011;3827;49.928;8.548;2023-10-13T00:26:54;7.90;;;6.20;;
7571;SDS011;3827;49.928;8.548;2023-10-13T00:29:24;10.10;;;6.73;;
7571;SDS011;3827;49.928;8.548;2023-10-13T00:32:02;7.70;;;6.10;;
7571;SDS011;3827;49.928;8.548;2023-10-13T00:34:30;14.27;;;7.32;;
7571;SDS011;3827;49.928;8.548;2023-10-13T00:36:57;9.57;;;6.28;;
7571;SDS011;3827;49.928;8.548;2023-10-13T00:39:41;9.32;;;6.55;;
7571;SDS011;3827;49.928;8.548;2023-10-13T00:42:10;9.73;;;7.03;;
7571;SDS011;3827;49.928;8.548;2023-10-13T00:44:46;7.30;;;5.97;;
7571;SDS011;3827;49.928;8.548;2023-10-13T00:47:14;10.32;;;5.97;;
7571;SDS011;3827;49.928;8.548;2023-10-13T00:49:50;8.27;;;6.05;;
7571;SDS011;3827;49.928;8.548;2023-10-13T00:52:16;6.30;;;5.23;;
7571;SDS011;3827;49.928;8.548;2023-10-13T00:54:47;7.80;;;5.97;;
7571;SDS011;3827;49.928;8.548;2023-10-13T00:57:14;9.05;;;6.20;;
7571;SDS011;3827;49.928;8.548;2023-10-13T00:59:53;8.73;;;5.80;;
7571;SDS011;3827;49.928;8.548;2023-10-13T01:02:20;9.47;;;6.40;;
7571;SDS011;3827;49.928;8.548;2023-10-13T01:05:04;8.98;;;6.00;;
7571;SDS011;3827;49.928;8.548;2023-10-13T01:07:30;8.68;;;5.88;;
7571;SDS011;3827;49.928;8.548;2023-10-13T01:09:57;12.00;;;5.90;;
7571;SDS011;3827;49.928;8.548;2023-10-13T01:12:23;8.98;;;6.47;;
7571;SDS011;3827;49.928;8.548;2023-10-13T01:14:49;8.50;;;5.97;;
7571;SDS011;3827;49.928;8.548;2023-10-13T01:17:17;8.32;;;6.07;;
7571;SDS011;3827;49.928;8.548;2023-10-13T01:19:44;11.00;;;6.20;;
7571;SDS011;3827;49.928;8.548;2023-10-13T01:22:14;8.43;;;6.20;;
7571;SDS011;3827;49.928;8.548;2023-10-13T01:24:41;7.33;;;5.73;;
7571;SDS011;3827;49.928;8.548;2023-10-13T01:27:08;11.70;;;6.15;;
7571;SDS011;3827;49.928;8.548;2023-10-13T01:29:42;11.45;;;5.72;;
7571;SDS011;3827;49.928;8.548;2023-10-13T01:32:12;8.13;;;5.85;;
7571;SDS011;3827;49.928;8.548;2023-10-13T01:34:38;9.52;;;6.20;;
7571;SDS011;3827;49.928;8.548;2023-10-13T01:37:10;9.93;;;6.17;;
7571;SDS011;3827;49.928;8.548;2023-10-13T01:39:36;10.40;;;6.85;;
7571;SDS011;3827;49.928;8.548;2023-10-13T01:42:04;7.65;;;6.40;;
7571;SDS011;3827;49.928;8.548;2023-10-13T01:44:31;8.48;;;5.50;;
7571;SDS011;3827;49.928;8.548;2023-10-13T01:46:57;11.23;;;7.05;;
7571;SDS011;3827;49.928;8.548;2023-10-13T01:49:31;11.82;;;6.70;;
7571;SDS011;3827;49.928;8.548;2023-10-13T01:52:06;8.00;;;5.88;;
7571;SDS011;3827;49.928;8.548;2023-10-13T01:54:33;7.43;;;5.80;;
7571;SDS011;3827;49.928;8.548;2023-10-13T01:56:59;7.13;;;5.70;;
7571;SDS011;3827;49.928;8.548;2023-10-13T01:59:30;9.15;;;6.10;;
7571;SDS011;3827;49.928;8.548;2023-10-13T02:01:55;10.02;;;6.65;;
7571;SDS011;3827;49.928;8.548;2023-10-13T02:04:25;8.38;;;5.93;;
7571;SDS011;3827;49.928;8.548;2023-10-13T02:06:52;7.32;;;5.93;;
7571;SDS011;3827;49.928;8.548;2023-10-13T02:09:21;7.97;;;5.90;;
7571;SDS011;3827;49.928;8.548;2023-10-13T02:11:51;8.17;;;5.83;;
7571;SDS011;3827;49.928;8.548;2023-10-13T02:14:19;8.73;;;6.32;;
7571;SDS011;3827;49.928;8.548;2023-10-13T02:16:48;8.50;;;6.28;;
7571;SDS011;3827;49.928;8.548;2023-10-13T02:19:16;10.32;;;6.68;;
7571;SDS011;3827;49.928;8.548;2023-10-13T02:21:44;9.43;;;6.43;;
7571;SDS011;3827;49.928;8.548;2023-10-13T02:24:23;10.43;;;6.50;;
7571;SDS011;3827;49.928;8.548;2023-10-13T02:26:54;9.57;;;7.10;;
7571;SDS011;3827;49.928;8.548;2023-10-13T02:29:27;8.05;;;6.93;;
7571;SDS011;3827;49.928;8.548;2023-10-13T02:31:54;8.60;;;7.55;;
7571;SDS011;3827;49.928;8.548;2023-10-13T02:34:22;7.80;;;6.93;;
7571;SDS011;3827;49.928;8.548;2023-10-13T02:36:48;8.95;;;6.95;;
7571;SDS011;3827;49.928;8.548;2023-10-13T02:39:15;8.18;;;6.40;;
7571;SDS011;3827;49.928;8.548;2023-10-13T02:41:41;9.77;;;6.43;;
7571;SDS011;3827;49.928;8.548;2023-10-13T02:44:13;8.68;;;6.65;;
7571;SDS011;3827;49.928;8.548;2023-10-13T02:46:51;7.07;;;6.30;;
7571;SDS011;3827;49.928;8.548;2023-10-13T02:49:21;9.55;;;7.47;;
7571;SDS011;3827;49.928;8.548;2023-10-13T02:51:51;9.70;;;7.15;;
7571;SDS011;3827;49.928;8.548;2023-10-13T02:54:18;8.80;;;7.13;;
7571;SDS011;3827;49.928;8.548;2023-10-13T02:56:45;7.78;;;6.40;;
7571;SDS011;3827;49.928;8.548;2023-10-13T02:59:21;8.77;;;7.15;;
7571;SDS011;3827;49.928;8.548;2023-10-13T03:01:59;9.23;;;7.60;;
7571;SDS011;3827;49.928;8.548;2023-10-13T03:04:26;9.95;;;7.30;;
7571;SDS011;3827;49.928;8.548;2023-10-13T03:06:53;8.13;;;6.95;;
7571;SDS011;3827;49.928;8.548;2023-10-13T03:09:19;8.90;;;7.03;;
7571;SDS011;3827;49.928;8.548;2023-10-13T03:11:47;9.48;;;7.78;;
7571;SDS011;3827;49.928;8.548;2023-10-13T03:14:14;9.05;;;7.97;;
7571;SDS011;3827;49.928;8.548;2023-10-13T03:16:51;10.32;;;7.85;;
7571;SDS011;3827;49.928;8.548;2023-10-13T03:19:18;11.48;;;8.13;;
7571;SDS011;3827;49.928;8.548;2023-10-13T03:21:45;9.20;;;7.93;;
7571;SDS011;3827;49.928;8.548;2023-10-13T03:24:20;9.70;;;8.10;;
7571;SDS011;3827;49.928;8.548;2023-10-13T03:26:48;11.27;;;7.88;;
7571;SDS011;3827;49.928;8.548;2023-10-13T03:29:17;13.55;;;8.68;;
7571;SDS011;3827;49.928;8.548;2023-10-13T03:31:47;11.43;;;8.68;;
7571;SDS011;3827;49.928;8.548;2023-10-13T03:34:31;11.20;;;8.40;;
7571;SDS011;3827;49.928;8.548;2023-10-13T03:37:01;9.88;;;7.18;;
7571;SDS011;3827;49.928;8.548;2023-10-13T03:39:36;10.18;;;7.80;;
7571;SDS011;3827;49.928;8.548;2023-10-13T03:42:03;11.20;;;7.90;;
7571;SDS011;3827;49.928;8.548;2023-10-13T03:44:36;9.65;;;7.70;;
7571;SDS011;3827;49.928;8.548;2023-10-13T03:47:03;10.75;;;8.70;;
7571;SDS011;3827;49.928;8.548;2023-10-13T03:49:43;10.93;;;8.07;;
7571;SDS011;3827;49.928;8.548;2023-10-13T03:52:11;10.30;;;7.60;;
7571;SDS011;3827;49.928;8.548;2023-10-13T03:54:38;9.73;;;7.90;;
7571;SDS011;3827;49.928;8.548;2023-10-13T03:57:06;10.68;;;8.20;;
7571;SDS011;3827;49.928;8.548;2023-10-13T03:59:36;11.77;;;7.63;;
7571;SDS011;3827;49.928;8.548;2023-10-13T04:02:03;10.87;;;7.10;;
7571;SDS011;3827;49.928;8.548;2023-10-13T04:04:37;8.67;;;7.40;;
7571;SDS011;3827;49.928;8.548;2023-10-13T04:07:14;9.97;;;7.67;;
7571;SDS011;3827;49.928;8.548;2023-10-13T04:10:01;11.60;;;7.72;;
7571;SDS011;3827;49.928;8.548;2023-10-13T04:12:59;9.18;;;7.20;;
7571;SDS011;3827;49.928;8.548;2023-10-13T04:15:44;9.77;;;7.30;;
7571;SDS011;3827;49.928;8.548;2023-10-13T04:18:24;10.75;;;7.57;;
7571;SDS011;3827;49.928;8.548;2023-10-13T04:20:59;9.85;;;7.00;;
7571;SDS011;3827;49.928;8.548;2023-10-13T04:23:45;9.20;;;7.13;;
7571;SDS011;3827;49.928;8.548;2023-10-13T04:26:29;10.18;;;6.72;;
7571;SDS011;3827;49.928;8.548;2023-10-13T04:29:02;8.93;;;7.00;;
7571;SDS011;3827;49.928;8.548;2023-10-13T04:31:35;12.88;;;7.50;;
7571;SDS011;3827;49.928;8.548;2023-10-13T04:34:21;10.90;;;7.05;;
7571;SDS011;3827;49.928;8.548;2023-10-13T04:36:53;12.83;;;7.37;;
7571;SDS011;3827;49.928;8.548;2023-10-13T04:39:37;9.30;;;6.68;;
7571;SDS011;3827;49.928;8.548;2023-10-13T04:42:04;8.32;;;6.32;;
7571;SDS011;3827;49.928;8.548;2023-10-13T04:44:38;10.23;;;6.90;;
7571;SDS011;3827;49.928;8.548;2023-10-13T04:47:13;8.75;;;6.95;;
7571;SDS011;3827;49.928;8.548;2023-10-13T04:49:47;8.52;;;6.78;;
7571;SDS011;3827;49.928;8.548;2023-10-13T04:52:18;9.32;;;6.60;;
7571;SDS011;3827;49.928;8.548;2023-10-13T04:55:15;9.10;;;6.75;;
7571;SDS011;3827;49.928;8.548;2023-10-13T04:57:58;10.02;;;7.70;;
7571;SDS011;3827;49.928;8.548;2023-10-13T05:00:36;8.63;;;7.13;;
7571;SDS011;3827;49.928;8.548;2023-10-13T05:03:41;8.68;;;6.53;;
7571;SDS011;3827;49.928;8.548;2023-10-13T05:06:19;8.07;;;6.25;;
7571;SDS011;3827;49.928;8.548;2023-10-13T05:09:03;8.70;;;6.72;;
7571;SDS011;3827;49.928;8.548;2023-10-13T05:11:48;6.90;;;6.03;;
7571;SDS011;3827;49.928;8.548;2023-10-13T05:14:32;8.35;;;6.45;;
7571;SDS011;3827;49.928;8.548;2023-10-13T05:17:17;8.80;;;7.00;;
7571;SDS011;3827;49.928;8.548;2023-10-13T05:20:01;7.47;;;6.30;;
7571;SDS011;3827;49.928;8.548;2023-10-13T05:22:45;8.10;;;6.72;;
7571;SDS011;3827;49.928;8.548;2023-10-13T05:25:29;11.50;;;6.90;;
7571;SDS011;3827;49.928;8.548;2023-10-13T05:28:15;8.45;;;6.68;;
7571;SDS011;3827;49.928;8.548;2023-10-13T05:30:59;9.13;;;7.10;;
7571;SDS011;3827;49.928;8.548;2023-10-13T05:33:43;10.23;;;7.25;;
7571;SDS011;3827;49.928;8.548;2023-10-13T05:36:27;10.13;;;6.97;;
7571;SDS011;3827;49.928;8.548;2023-10-13T05:39:12;11.27;;;7.45;;
7571;SDS011;3827;49.928;8.548;2023-10-13T05:41:56;10.40;;;7.30;;
7571;SDS011;3827;49.928;8.548;2023-10-13T05:44:42;11.77;;;7.40;;
7571;SDS011;3827;49.928;8.548;2023-10-13T05:47:21;9.70;;;7.15;;
7571;SDS011;3827;49.928;8.548;2023-10-13T05:50:06;10.40;;;6.95;;
7571;SDS011;3827;49.928;8.548;2023-10-13T05:52:53;10.88;;;7.18;;
7571;SDS011;3827;49.928;8.548;2023-10-13T05:55:38;8.57;;;6.63;;
7571;SDS011;3827;49.928;8.548;2023-10-13T05:58:22;9.52;;;7.22;;
7571;SDS011;3827;49.928;8.548;2023-10-13T06:01:13;10.35;;;6.70;;
7571;SDS011;3827;49.928;8.548;2023-10-13T06:03:57;8.73;;;7.10;;
7571;SDS011;3827;49.928;8.548;2023-10-13T06:06:41;9.40;;;6.93;;
7571;SDS011;3827;49.928;8.548;2023-10-13T06:09:25;11.05;;;7.07;;
7571;SDS011;3827;49.928;8.548;2023-10-13T06:12:09;10.77;;;7.07;;
7571;SDS011;3827;49.928;8.548;2023-10-13T06:14:54;14.27;;;7.40;;
7571;SDS011;3827;49.928;8.548;2023-10-13T06:17:39;10.75;;;7.25;;
7571;SDS011;3827;49.928;8.548;2023-10-13T06:20:23;9.70;;;6.53;;
7571;SDS011;3827;49.928;8.548;2023-10-13T06:23:07;8.57;;;6.47;;
7571;SDS011;3827;49.928;8.548;2023-10-13T06:25:52;9.38;;;6.82;;
7571;SDS011;3827;49.928;8.548;2023-10-13T06:28:36;9.80;;;6.60;;
7571;SDS011;3827;49.928;8.548;2023-10-13T06:31:11;10.07;;;6.72;;
7571;SDS011;3827;49.928;8.548;2023-10-13T06:33:47;9.88;;;7.00;;
7571;SDS011;3827;49.928;8.548;2023-10-13T06:36:14;6.93;;;6.18;;
7571;SDS011;3827;49.928;8.548;2023-10-13T06:38:42;10.50;;;6.80;;
7571;SDS011;3827;49.928;8.548;2023-10-13T06:41:11;11.90;;;6.50;;
7571;SDS011;3827;49.928;8.548;2023-10-13T06:43:45;6.10;;;5.50;;
7571;SDS011;3827;49.928;8.548;2023-10-13T06:46:24;7.45;;;5.95;;
7571;SDS011;3827;49.928;8.548;2023-10-13T06:48:54;8.38;;;6.60;;
7571;SDS011;3827;49.928;8.548;2023-10-13T06:51:24;6.75;;;5.43;;
7571;SDS011;3827;49.928;8.548;2023-10-13T06:53:55;8.93;;;6.30;;
7571;SDS011;3827;49.928;8.548;2023-10-13T06:56:23;10.07;;;6.30;;
7571;SDS011;3827;49.928;8.548;2023-10-13T06:58:53;9.93;;;6.50;;
7571;SDS011;3827;49.928;8.548;2023-10-13T07:01:24;8.20;;;5.78;;
7571;SDS011;3827;49.928;8.548;2023-10-13T07:03:51;8.10;;;6.33;;
7571;SDS011;3827;49.928;8.548;2023-10-13T07:06:20;6.97;;;5.60;;
7571;SDS011;3827;49.928;8.548;2023-10-13T07:08:47;7.13;;;5.38;;
7571;SDS011;3827;49.928;8.548;2023-10-13T07:11:18;7.22;;;5.63;;
7571;SDS011;3827;49.928;8.548;2023-10-13T07:13:58;9.60;;;6.00;;
7571;SDS011;3827;49.928;8.548;2023-10-13T07:16:34;7.47;;;5.57;;
7571;SDS011;3827;49.928;8.548;2023-10-13T07:19:02;7.35;;;5.82;;
7571;SDS011;3827;49.928;8.548;2023-10-13T07:21:32;7.17;;;5.10;;
7571;SDS011;3827;49.928;8.548;2023-10-13T07:23:59;9.90;;;5.85;;
7571;SDS011;3827;49.928;8.548;2023-10-13T07:26:36;9.70;;;5.70;;
7571;SDS011;3827;49.928;8.548;2023-10-13T07:29:07;7.07;;;5.07;;
7571;SDS011;3827;49.928;8.548;2023-10-13T07:31:35;10.18;;;5.93;;
7571;SDS011;3827;49.928;8.548;2023-10-13T07:34:05;10.87;;;5.63;;
7571;SDS011;3827;49.928;8.548;2023-10-13T07:36:39;7.32;;;5.15;;
7571;SDS011;3827;49.928;8.548;2023-10-13T07:39:08;9.90;;;5.20;;
7571;SDS011;3827;49.928;8.548;2023-10-13T07:41:47;6.57;;;5.07;;
7571;SDS011;3827;49.928;8.548;2023-10-13T07:44:17;8.70;;;5.15;;
7571;SDS011;3827;49.928;8.548;2023-10-13T07:46:49;6.18;;;4.53;;
7571;SDS011;3827;49.928;8.548;2023-10-13T07:49:25;8.15;;;4.80;;
7571;SDS011;3827;49.928;8.548;2023-10-13T07:51:59;7.78;;;4.85;;
7571;SDS011;3827;49.928;8.548;2023-10-13T07:54:41;7.03;;;4.82;;
7571;SDS011;3827;49.928;8.548;2023-10-13T07:57:09;9.50;;;4.82;;
7571;SDS011;3827;49.928;8.548;2023-10-13T07:59:39;10.55;;;4.82;;
7571;SDS011;3827;49.928;8.548;2023-10-13T08:02:14;8.18;;;4.40;;
7571;SDS011;3827;49.928;8.548;2023-10-13T08:05:01;7.63;;;4.60;;
7571;SDS011;3827;49.928;8.548;2023-10-13T08:07:31;6.53;;;4.70;;
7571;SDS011;3827;49.928;8.548;2023-10-13T08:09:58;6.50;;;4.95;;
7571;SDS011;3827;49.928;8.548;2023-10-13T08:12:26;6.85;;;4.95;;
7571;SDS011;3827;49.928;8.548;2023-10-13T08:14:53;6.60;;;4.77;;
7571;SDS011;3827;49.928;8.548;2023-10-13T08:17:46;8.68;;;4.53;;
7571;SDS011;3827;49.928;8.548;2023-10-13T08:20:17;8.90;;;5.20;;
7571;SDS011;3827;49.928;8.548;2023-10-13T08:22:47;5.97;;;4.18;;
7571;SDS011;3827;49.928;8.548;2023-10-13T08:25:14;7.60;;;4.57;;
7571;SDS011;3827;49.928;8.548;2023-10-13T08:27:45;6.72;;;4.55;;
7571;SDS011;3827;49.928;8.548;2023-10-13T08:30:30;6.68;;;4.32;;
7571;SDS011;3827;49.928;8.548;2023-10-13T08:32:59;9.63;;;4.53;;
7571;SDS011;3827;49.928;8.548;2023-10-13T08:35:41;6.25;;;4.53;;
7571;SDS011;3827;49.928;8.548;2023-10-13T08:38:20;6.00;;;4.20;;
7571;SDS011;3827;49.928;8.548;2023-10-13T08:40:53;5.13;;;4.10;;
7571;SDS011;3827;49.928;8.548;2023-10-13T08:43:42;7.57;;;4.90;;
7571;SDS011;3827;49.928;8.548;2023-10-13T08:46:15;7.10;;;4.35;;
7571;SDS011;3827;49.928;8.548;2023-10-13T08:48:55;7.28;;;5.20;;
7571;SDS011;3827;49.928;8.548;2023-10-13T08:51:33;5.60;;;4.60;;
7571;SDS011;3827;49.928;8.548;2023-10-13T08:54:14;6.20;;;4.60;;
7571;SDS011;3827;49.928;8.548;2023-10-13T08:56:58;8.10;;;4.30;;
7571;SDS011;3827;49.928;8.548;2023-10-13T08:59:31;6.65;;;4.38;;
7571;SDS011;3827;49.928;8.548;2023-10-13T09:02:14;7.53;;;4.45;;
7571;SDS011;3827;49.928;8.548;2023-10-13T09:04:42;9.48;;;4.65;;
7571;SDS011;3827;49.928;8.548;2023-10-13T09:07:10;6.93;;;4.15;;
7571;SDS011;3827;49.928;8.548;2023-10-13T09:09:48;7.50;;;4.68;;
7571;SDS011;3827;49.928;8.548;2023-10-13T09:12:38;6.40;;;4.50;;
7571;SDS011;3827;49.928;8.548;2023-10-13T09:15:28;8.30;;;4.53;;
7571;SDS011;3827;49.928;8.548;2023-10-13T09:18:23;7.97;;;4.20;;
7571;SDS011;3827;49.928;8.548;2023-10-13T09:21:08;8.50;;;4.43;;
7571;SDS011;3827;49.928;8.548;2023-10-13T09:23:48;7.75;;;4.40;;
7571;SDS011;3827;49.928;8.548;2023-10-13T09:26:34;6.75;;;4.43;;
7571;SDS011;3827;49.928;8.548;2023-10-13T09:29:01;5.50;;;4.05;;
7571;SDS011;3827;49.928;8.548;2023-10-13T09:31:32;6.67;;;4.60;;
7571;SDS011;3827;49.928;8.548;2023-10-13T09:33:58;5.73;;;4.40;;
7571;SDS011;3827;49.928;8.548;2023-10-13T09:36:25;5.05;;;3.83;;
7571;SDS011;3827;49.928;8.548;2023-10-13T09:38:54;6.25;;;3.90;;
7571;SDS011;3827;49.928;8.548;2023-10-13T09:41:39;8.65;;;3.80;;
7571;SDS011;3827;49.928;8.548;2023-10-13T09:44:07;6.10;;;3.75;;
7571;SDS011;3827;49.928;8.548;2023-10-13T09:46:33;5.50;;;3.97;;
7571;SDS011;3827;49.928;8.548;2023-10-13T09:49:10;5.35;;;3.85;;
7571;SDS011;3827;49.928;8.548;2023-10-13T09:51:40;4.90;;;3.60;;
7571;SDS011;3827;49.928;8.548;2023-10-13T09:54:11;6.38;;;3.67;;
7571;SDS011;3827;49.928;8.548;2023-10-13T09:56:53;4.53;;;3.60;;
7571;SDS011;3827;49.928;8.548;2023-10-13T09:59:27;7.33;;;4.33;;
7571;SDS011;3827;49.928;8.548;2023-10-13T10:01:59;8.00;;;3.63;;
7571;SDS011;3827;49.928;8.548;2023-10-13T10:04:34;8.98;;;4.25;;
7571;SDS011;3827;49.928;8.548;2023-10-13T10:07:06;6.75;;;4.05;;
7571;SDS011;3827;49.928;8.548;2023-10-13T10:09:34;6.65;;;3.83;;
7571;SDS011;3827;49.928;8.548;2023-10-13T10:12:09;5.55;;;4.00;;
7571;SDS011;3827;49.928;8.548;2023-10-13T10:14:56;8.27;;;4.00;;
7571;SDS011;3827;49.928;8.548;2023-10-13T10:17:45;6.53;;;4.00;;
7571;SDS011;3827;49.928;8.548;2023-10-13T10:20:12;8.43;;;3.92;;
7571;SDS011;3827;49.928;8.548;2023-10-13T10:22:55;5.82;;;4.25;;
7571;SDS011;3827;49.928;8.548;2023-10-13T10:25:30;7.00;;;4.32;;
7571;SDS011;3827;49.928;8.548;2023-10-13T10:28:02;6.00;;;4.13;;
7571;SDS011;3827;49.928;8.548;2023-10-13T10:30:32;5.53;;;4.03;;
7571;SDS011;3827;49.928;8.548;2023-10-13T10:33:00;6.78;;;4.30;;
7571;SDS011;3827;49.928;8.548;2023-10-13T10:35:33;7.22;;;4.00;;
7571;SDS011;3827;49.928;8.548;2023-10-13T10:38:07;6.13;;;4.03;;
7571;SDS011;3827;49.928;8.548;2023-10-13T10:40:50;7.30;;;4.27;;
7571;SDS011;3827;49.928;8.548;2023-10-13T10:43:23;6.47;;;3.95;;
7571;SDS011;3827;49.928;8.548;2023-10-13T10:45:54;7.60;;;4.32;;
7571;SDS011;3827;49.928;8.548;2023-10-13T10:48:26;8.55;;;4.57;;
7571;SDS011;3827;49.928;8.548;2023-10-13T10:50:59;9.30;;;4.87;;
7571;SDS011;3827;49.928;8.548;2023-10-13T10:53:33;5.15;;;4.10;;
7571;SDS011;3827;49.928;8.548;2023-10-13T10:56:08;9.43;;;3.97;;
7571;SDS011;3827;49.928;8.548;2023-10-13T10:58:47;7.70;;;4.07;;
7571;SDS011;3827;49.928;8.548;2023-10-13T11:01:20;7.45;;;3.70;;
7571;SDS011;3827;49.928;8.548;2023-10-13T11:03:54;7.15;;;3.85;;
7571;SDS011;3827;49.928;8.548;2023-10-13T11:06:23;6.33;;;4.30;;
7571;SDS011;3827;49.928;8.548;2023-10-13T11:09:00;8.37;;;4.10;;
7571;SDS011;3827;49.928;8.548;2023-10-13T11:11:29;7.20;;;4.32;;
7571;SDS011;3827;49.928;8.548;2023-10-13T11:14:02;5.60;;;4.18;;
7571;SDS011;3827;49.928;8.548;2023-10-13T11:16:48;9.18;;;4.53;;
7571;SDS011;3827;49.928;8.548;2023-10-13T11:19:19;6.20;;;3.83;;
7571;SDS011;3827;49.928;8.548;2023-10-13T11:21:53;7.15;;;3.97;;
7571;SDS011;3827;49.928;8.548;2023-10-13T11:24:20;6.85;;;3.78;;
7571;SDS011;3827;49.928;8.548;2023-10-13T11:26:47;6.07;;;3.67;;
7571;SDS011;3827;49.928;8.548;2023-10-13T11:29:31;6.15;;;3.75;;
7571;SDS011;3827;49.928;8.548;2023-10-13T11:31:59;5.73;;;3.67;;
7571;SDS011;3827;49.928;8.548;2023-10-13T11:34:28;6.93;;;3.95;;
7571;SDS011;3827;49.928;8.548;2023-10-13T11:37:04;5.90;;;4.07;;
7571;SDS011;3827;49.928;8.548;2023-10-13T11:39:53;7.60;;;3.60;;
7571;SDS011;3827;49.928;8.548;2023-10-13T11:42:20;5.10;;;3.63;;
7571;SDS011;3827;49.928;8.548;2023-10-13T11:44:48;5.55;;;3.80;;
7571;SDS011;3827;49.928;8.548;2023-10-13T11:47:26;6.00;;;3.80;;
7571;SDS011;3827;49.928;8.548;2023-10-13T11:50:12;4.57;;;3.65;;
7571;SDS011;3827;49.928;8.548;2023-10-13T11:52:51;5.07;;;3.50;;
7571;SDS011;3827;49.928;8.548;2023-10-13T11:55:18;4.05;;;3.40;;
7571;SDS011;3827;49.928;8.548;2023-10-13T11:57:45;8.88;;;3.67;;
7571;SDS011;3827;49.928;8.548;2023-10-13T12:00:14;6.28;;;3.88;;
7571;SDS011;3827;49.928;8.548;2023-10-13T12:02:51;6.13;;;3.80;;
7571;SDS011;3827;49.928;8.548;2023-10-13T12:05:35;4.35;;;3.20;;
7571;SDS011;3827;49.928;8.548;2023-10-13T12:08:31;6.93;;;3.55;;
7571;SDS011;3827;49.928;8.548;2023-10-13T12:11:03;6.20;;;3.90;;
7571;SDS011;3827;49.928;8.548;2023-10-13T12:13:50;6.47;;;3.75;;
7571;SDS011;3827;49.928;8.548;2023-10-13T12:16:18;7.30;;;3.88;;
7571;SDS011;3827;49.928;8.548;2023-10-13T12:18:45;4.68;;;3.47;;
7571;SDS011;3827;49.928;8.548;2023-10-13T12:21:18;5.60;;;3.67;;
7571;SDS011;3827;49.928;8.548;2023-10-13T12:23:46;6.45;;;3.67;;
7571;SDS011;3827;49.928;8.548;2023-10-13T12:26:13;5.05;;;3.40;;
7571;SDS011;3827;49.928;8.548;2023-10-13T12:28:45;6.18;;;3.90;;
7571;SDS011;3827;49.928;8.548;2023-10-13T12:31:16;7.72;;;3.85;;
7571;SDS011;3827;49.928;8.548;2023-10-13T12:33:51;6.07;;;3.70;;
7571;SDS011;3827;49.928;8.548;2023-10-13T12:36:18;7.80;;;3.53;;
7571;SDS011;3827;49.928;8.548;2023-10-13T12:38:56;4.82;;;3.33;;
7571;SDS011;3827;49.928;8.548;2023-10-13T12:41:40;6.20;;;3.50;;
7571;SDS011;3827;49.928;8.548;2023-10-13T12:44:24;5.95;;;3.30;;
7571;SDS011;3827;49.928;8.548;2023-10-13T12:47:10;5.85;;;3.25;;
7571;SDS011;3827;49.928;8.548;2023-10-13T12:49:54;6.13;;;3.53;;
7571;SDS011;3827;49.928;8.548;2023-10-13T12:52:30;8.15;;;3.70;;
7571;SDS011;3827;49.928;8.548;2023-10-13T12:54:57;9.17;;;3.97;;
7571;SDS011;3827;49.928;8.548;2023-10-13T12:57:31;6.65;;;3.50;;
7571;SDS011;3827;49.928;8.548;2023-10-13T12:59:58;4.47;;;3.38;;
7571;SDS011;3827;49.928;8.548;2023-10-13T13:02:26;4.80;;;3.00;;
7571;SDS011;3827;49.928;8.548;2023-10-13T13:04:55;3.65;;;3.03;;
7571;SDS011;3827;49.928;8.548;2023-10-13T13:07:30;5.20;;;3.30;;
7571;SDS011;3827;49.928;8.548;2023-10-13T13:10:08;7.25;;;3.60;;
7571;SDS011;3827;49.928;8.548;2023-10-13T13:12:36;5.63;;;2.90;;
7571;SDS011;3827;49.928;8.548;2023-10-13T13:15:04;5.43;;;3.20;;
7571;SDS011;3827;49.928;8.548;2023-10-13T13:17:35;7.70;;;2.90;;
7571;SDS011;3827;49.928;8.548;2023-10-13T13:20:04;6.05;;;3.35;;
7571;SDS011;3827;49.928;8.548;2023-10-13T13:22:36;8.07;;;2.90;;
7571;SDS011;3827;49.928;8.548;2023-10-13T13:25:03;11.63;;;3.17;;
7571;SDS011;3827;49.928;8.548;2023-10-13T13:27:33;7.38;;;2.95;;
7571;SDS011;3827;49.928;8.548;2023-10-13T13:30:01;5.72;;;3.38;;
7571;SDS011;3827;49.928;8.548;2023-10-13T13:32:38;5.20;;;2.78;;
7571;SDS011;3827;49.928;8.548;2023-10-13T13:35:06;6.53;;;3.10;;
7571;SDS011;3827;49.928;8.548;2023-10-13T13:37:38;4.32;;;2.90;;
7571;SDS011;3827;49.928;8.548;2023-10-13T13:40:08;3.92;;;2.58;;
7571;SDS011;3827;49.928;8.548;2023-10-13T13:42:41;6.85;;;2.88;;
7571;SDS011;3827;49.928;8.548;2023-10-13T13:45:12;7.47;;;3.28;;
7571;SDS011;3827;49.928;8.548;2023-10-13T13:47:48;4.50;;;2.75;;
7571;SDS011;3827;49.928;8.548;2023-10-13T13:50:18;4.50;;;2.70;;
7571;SDS011;3827;49.928;8.548;2023-10-13T13:52:50;4.45;;;2.80;;
7571;SDS011;3827;49.928;8.548;2023-10-13T13:55:18;5.15;;;2.70;;
7571;SDS011;3827;49.928;8.548;2023-10-13T13:57:45;5.57;;;2.45;;
7571;SDS011;3827;49.928;8.548;2023-10-13T14:00:14;3.90;;;3.20;;
7571;SDS011;3827;49.928;8.548;2023-10-13T14:02:45;6.32;;;2.85;;
7571;SDS011;3827;49.928;8.548;2023-10-13T14:05:14;4.80;;;2.92;;
7571;SDS011;3827;49.928;8.548;2023-10-13T14:07:42;6.53;;;3.15;;
7571;SDS011;3827;49.928;8.548;2023-10-13T14:10:14;3.40;;;2.67;;
7571;SDS011;3827;49.928;8.548;2023-10-13T14:12:56;6.55;;;2.85;;
7571;SDS011;3827;49.928;8.548;2023-10-13T14:15:31;3.92;;;2.72;;
7571;SDS011;3827;49.928;8.548;2023-10-13T14:18:04;3.90;;;2.63;;
7571;SDS011;3827;49.928;8.548;2023-10-13T14:20:33;4.85;;;2.90;;
7571;SDS011;3827;49.928;8.548;2023-10-13T14:23:04;7.47;;;3.50;;
7571;SDS011;3827;49.928;8.548;2023-10-13T14:25:32;11.02;;;3.47;;
7571;SDS011;3827;49.928;8.548;2023-10-13T14:28:02;5.55;;;2.85;;
7571;SDS011;3827;49.928;8.548;2023-10-13T14:30:30;5.80;;;2.87;;
7571;SDS011;3827;49.928;8.548;2023-10-13T14:32:57;6.33;;;2.93;;
7571;SDS011;3827;49.928;8.548;2023-10-13T14:35:24;11.10;;;3.30;;
7571;SDS011;3827;49.928;8.548;2023-10-13T14:37:52;5.20;;;2.83;;
7571;SDS011;3827;49.928;8.548;2023-10-13T14:40:19;6.13;;;3.08;;
7571;SDS011;3827;49.928;8.548;2023-10-13T14:42:47;6.93;;;2.97;;
7571;SDS011;3827;49.928;8.548;2023-10-13T14:45:14;6.55;;;3.40;;
7571;SDS011;3827;49.928;8.548;2023-10-13T14:47:42;10.85;;;4.65;;
7571;SDS011;3827;49.928;8.548;2023-10-13T14:50:10;4.57;;;3.75;;
7571;SDS011;3827;49.928;8.548;2023-10-13T14:52:44;8.95;;;3.42;;
7571;SDS011;3827;49.928;8.548;2023-10-13T14:55:13;8.52;;;3.13;;
7571;SDS011;3827;49.928;8.548;2023-10-13T14:57:46;8.05;;;3.30;;
7571;SDS011;3827;49.928;8.548;2023-10-13T15:00:15;6.22;;;3.13;;
7571;SDS011;3827;49.928;8.548;2023-10-13T15:02:49;7.93;;;2.92;;
7571;SDS011;3827;49.928;8.548;2023-10-13T15:05:17;6.40;;;3.07;;
7571;SDS011;3827;49.928;8.548;2023-10-13T15:07:44;7.28;;;3.10;;
7571;SDS011;3827;49.928;8.548;2023-10-13T15:10:13;5.40;;;2.92;;
7571;SDS011;3827;49.928;8.548;2023-10-13T15:12:41;3.95;;;2.83;;
7571;SDS011;3827;49.928;8.548;2023-10-13T15:15:09;6.20;;;2.97;;
7571;SDS011;3827;49.928;8.548;2023-10-13T15:17:41;7.95;;;3.03;;
7571;SDS011;3827;49.928;8.548;2023-10-13T15:20:08;6.28;;;3.13;;
7571;SDS011;3827;49.928;8.548;2023-10-13T15:22:36;4.45;;;2.63;;
7571;SDS011;3827;49.928;8.548;2023-10-13T15:25:04;4.82;;;3.00;;
7571;SDS011;3827;49.928;8.548;2023-10-13T15:27:44;6.97;;;3.10;;
7571;SDS011;3827;49.928;8.548;2023-10-13T15:30:15;6.22;;;2.97;;
7571;SDS011;3827;49.928;8.548;2023-10-13T15:32:51;4.40;;;2.93;;
7571;SDS011;3827;49.928;8.548;2023-10-13T15:35:19;5.03;;;2.88;;
7571;SDS011;3827;49.928;8.548;2023-10-13T15:37:48;5.05;;;2.80;;
7571;SDS011;3827;49.928;8.548;2023-10-13T15:40:16;9.38;;;3.20;;
7571;SDS011;3827;49.928;8.548;2023-10-13T15:42:45;5.78;;;2.78;;
7571;SDS011;3827;49.928;8.548;2023-10-13T15:45:12;5.03;;;2.47;;
7571;SDS011;3827;49.928;8.548;2023-10-13T15:47:47;8.45;;;3.50;;
7571;SDS011;3827;49.928;8.548;2023-10-13T15:50:14;7.45;;;2.83;;
7571;SDS011;3827;49.928;8.548;2023-10-13T15:52:44;6.47;;;3.33;;